.
WxDataArchive / Data Records for 2014-09-14
2014-09-13 September 2014 2014-09-15

Data Records for Sunday, 14 September 2014

Time	Temp	Chill	HIndex	Humid	Dewpt	 Wind 	HiWind	WindDir	Rain 	Barom
-----	----	-----	------	-----	-----	------	------	-------	-----	-----
00:00	46.2	46.2	46.2	91	43.7	0	0	---	0.00	30.320 
00:05	46.1	46.1	46.1	91	43.6	0	0	---	0.00	30.320 
00:10	46.1	46.1	46.1	91	43.6	0	0	---	0.00	30.320 
00:15	46.0	46.0	46.0	91	43.5	0	0	---	0.00	30.322 
00:20	45.8	45.8	45.8	91	43.3	0	0	---	0.00	30.322 
00:25	45.7	45.7	45.7	92	43.5	0	0	---	0.00	30.322 
00:30	45.5	45.5	45.5	92	43.3	0	0	---	0.00	30.322 
00:35	45.4	45.4	45.4	92	43.2	0	0	---	0.00	30.322 
00:40	45.4	45.4	45.4	92	43.2	0	0	---	0.00	30.322 
00:45	45.4	45.4	45.4	92	43.2	0	0	---	0.00	30.320 
00:50	45.2	45.2	45.2	92	43.0	0	0	---	0.00	30.320 
00:55	45.2	45.2	45.2	92	43.0	0	0	---	0.00	30.320 
01:00	45.1	45.1	45.1	92	42.9	0	0	---	0.00	30.317 
01:05	44.9	44.9	44.9	92	42.7	0	0	---	0.00	30.317 
01:10	44.9	44.9	44.9	92	42.7	0	0	---	0.00	30.317 
01:15	44.9	44.9	44.9	92	42.7	0	0	---	0.00	30.318 
01:20	44.8	44.8	44.8	92	42.6	0	0	---	0.00	30.318 
01:25	44.8	44.8	44.8	92	42.6	0	0	---	0.00	30.318 
01:30	44.6	44.6	44.6	93	42.7	0	0	---	0.00	30.319 
01:35	44.6	44.6	44.6	93	42.7	0	0	---	0.00	30.319 
01:40	44.5	44.5	44.5	93	42.6	0	0	---	0.00	30.319 
01:45	44.5	44.5	44.5	93	42.6	0	0	---	0.00	30.318 
01:50	44.3	44.3	44.3	93	42.4	0	0	---	0.00	30.318 
01:55	44.3	44.3	44.3	93	42.4	0	0	---	0.00	30.318 
02:00	44.2	44.2	44.2	93	42.3	0	0	---	0.00	30.320 
02:05	44.1	44.1	44.1	93	42.2	0	0	---	0.00	30.320 
02:10	44.1	44.1	44.1	93	42.2	0	0	---	0.00	30.320 
02:15	43.9	43.9	43.9	93	42.0	0	0	---	0.00	30.321 
02:20	43.9	43.9	43.9	93	42.0	0	0	---	0.00	30.321 
02:25	43.9	43.9	43.9	93	42.0	0	0	---	0.00	30.321 
02:30	43.8	43.8	43.8	93	41.9	0	0	---	0.00	30.320 
02:35	43.8	43.8	43.8	93	41.9	0	0	---	0.00	30.320 
02:40	43.8	43.8	43.8	93	41.9	0	0	---	0.00	30.320 
02:45	43.8	43.8	43.8	93	41.9	0	0	---	0.00	30.319 
02:50	43.8	43.8	43.8	93	41.9	0	0	---	0.00	30.319 
02:55	43.8	43.8	43.8	93	41.9	0	0	---	0.00	30.319 
03:00	43.8	43.8	43.8	94	42.2	0	0	---	0.00	30.318 
03:05	43.6	43.6	43.6	94	42.0	0	0	---	0.00	30.318 
03:10	43.6	43.6	43.6	94	42.0	0	0	---	0.00	30.318 
03:15	43.5	43.5	43.5	94	41.9	0	0	---	0.00	30.316 
03:20	43.5	43.5	43.5	94	41.9	0	0	---	0.00	30.316 
03:25	43.3	43.3	43.3	94	41.7	0	0	---	0.00	30.316 
03:30	43.3	43.3	43.3	94	41.7	0	0	---	0.00	30.316 
03:35	43.2	43.2	43.2	94	41.6	0	0	---	0.00	30.316 
03:40	43.1	43.1	43.1	94	41.5	0	0	---	0.00	30.316 
03:45	43.1	43.1	43.1	94	41.5	0	0	---	0.00	30.314 
03:50	42.9	42.9	42.9	94	41.3	0	0	---	0.00	30.314 
03:55	42.9	42.9	42.9	94	41.3	0	0	---	0.00	30.314 
04:00	42.8	42.8	42.8	94	41.2	0	0	---	0.00	30.315 
04:05	42.6	42.6	42.6	94	41.0	0	0	---	0.00	30.315 
04:10	42.6	42.6	42.6	94	41.0	0	0	---	0.00	30.315 
04:15	42.5	42.5	42.5	94	40.9	0	0	---	0.00	30.316 
04:20	42.5	42.5	42.5	94	40.9	0	0	---	0.00	30.316 
04:25	42.5	42.5	42.5	94	40.9	0	0	---	0.00	30.316 
04:30	42.5	42.5	42.5	94	40.9	0	0	---	0.00	30.317 
04:35	42.3	42.3	42.3	94	40.7	0	0	---	0.00	30.317 
04:40	42.3	42.3	42.3	94	40.7	0	0	---	0.00	30.317 
04:45	42.3	42.3	42.3	94	40.7	0	0	---	0.00	30.318 
04:50	42.5	42.5	42.5	94	40.9	0	0	---	0.00	30.318 
04:55	42.6	42.6	42.6	94	41.0	0	0	---	0.00	30.318 
05:00	42.8	42.8	42.8	94	41.2	0	0	---	0.00	30.318 
05:05	42.9	42.9	42.9	95	41.6	0	0	---	0.00	30.318 
05:10	43.1	43.1	43.1	95	41.8	0	0	---	0.00	30.318 
05:15	43.2	43.2	43.2	95	41.9	0	0	---	0.00	30.318 
05:20	43.3	43.3	43.3	95	42.0	0	0	---	0.00	30.318 
05:25	43.5	43.5	43.5	95	42.2	0	0	---	0.00	30.318 
05:30	43.5	43.5	43.5	95	42.2	0	0	---	0.00	30.318 
05:35	43.6	43.6	43.6	95	42.3	0	0	---	0.00	30.318 
05:40	43.9	43.9	43.9	95	42.6	0	0	---	0.00	30.318 
05:45	44.1	44.1	44.1	95	42.8	0	0	---	0.00	30.318 
05:50	44.2	44.2	44.2	95	42.9	0	0	---	0.00	30.318 
05:55	44.3	44.3	44.3	95	43.0	0	0	---	0.00	30.318 
06:00	44.5	44.5	44.5	95	43.2	0	0	---	0.00	30.317 
06:05	44.6	44.6	44.6	95	43.3	0	0	---	0.00	30.317 
06:10	44.8	44.8	44.8	95	43.5	0	1	270	0.00	30.317 
06:15	45.1	45.1	45.1	95	43.8	0	1	270	0.00	30.316 
06:20	45.1	45.1	45.1	95	43.8	0	0	---	0.00	30.316 
06:25	45.2	45.2	45.2	95	43.9	0	0	---	0.00	30.316 
06:30	45.2	45.2	45.2	95	43.9	0	0	---	0.00	30.316 
06:35	45.4	45.4	45.4	95	44.1	0	0	---	0.00	30.316 
06:40	45.5	45.5	45.5	95	44.2	0	1	270	0.00	30.316 
06:45	45.7	45.7	45.7	95	44.4	0	0	---	0.00	30.316 
06:50	45.8	45.8	45.8	95	44.4	0	0	---	0.00	30.316 
06:55	45.8	45.8	45.8	95	44.4	0	0	---	0.00	30.316 
07:00	46.0	46.0	46.0	95	44.6	0	0	---	0.00	30.317 
07:05	46.0	46.0	46.0	95	44.6	0	1	270	0.00	30.317 
07:10	46.1	46.1	46.1	95	44.7	0	0	---	0.00	30.317 
07:15	46.1	46.1	46.1	95	44.7	0	0	---	0.00	30.320 
07:20	46.2	46.2	46.2	95	44.8	0	0	---	0.00	30.320 
07:25	46.2	46.2	46.2	95	44.8	0	0	---	0.00	30.320 
07:30	46.4	46.4	46.4	95	45.0	0	0	---	0.00	30.322 
07:35	46.4	46.4	46.4	95	45.0	0	0	---	0.00	30.322 
07:40	46.5	46.5	46.5	95	45.1	0	1	270	0.00	30.322 
07:45	46.5	46.5	46.5	95	45.1	0	1	270	0.00	30.320 
07:50	46.7	46.7	46.7	95	45.3	0	0	---	0.00	30.320 
07:55	46.8	46.8	46.8	95	45.4	0	0	---	0.00	30.320 
08:00	47.0	47.0	47.0	95	45.6	0	0	---	0.00	30.321 
08:05	47.1	47.1	47.1	95	45.7	0	0	---	0.00	30.321 
08:10	47.4	47.4	47.4	95	46.0	0	0	---	0.00	30.321 
08:15	47.4	47.4	47.4	95	46.0	0	0	---	0.00	30.324 
08:20	47.6	47.6	47.6	95	46.2	0	1	270	0.00	30.324 
08:25	47.7	47.7	47.7	94	46.1	0	1	270	0.00	30.324 
08:30	48.0	48.0	48.0	94	46.4	0	1	270	0.00	30.320 
08:35	48.3	48.3	48.3	94	46.7	0	0	---	0.00	30.320 
08:40	48.5	48.5	48.5	93	46.6	0	0	---	0.00	30.320 
08:45	48.6	48.6	48.6	93	46.7	0	1	270	0.00	30.321 
08:50	48.9	48.9	48.9	92	46.7	0	1	270	0.00	30.321 
08:55	49.2	49.2	49.2	92	47.0	0	1	270	0.00	30.321 
09:00	49.4	49.4	49.4	92	47.2	0	1	270	0.00	30.321 
09:05	49.6	49.6	49.6	91	47.1	0	1	270	0.00	30.321 
09:10	49.9	49.9	49.9	90	47.1	0	1	270	0.00	30.321 
09:15	50.1	50.1	50.1	89	47.0	0	1	270	0.00	30.322 
09:20	50.4	50.4	50.4	89	47.3	0	1	270	0.00	30.322 
09:25	50.8	50.8	50.8	89	47.7	0	1	270	0.00	30.322 
09:30	51.1	51.1	51.1	88	47.7	0	1	270	0.00	30.319 
09:35	51.4	51.4	51.4	88	48.0	0	1	270	0.00	30.319 
09:40	51.7	51.7	51.7	87	48.0	0	1	270	0.00	30.319 
09:45	52.0	52.0	52.0	86	47.9	0	2	270	0.00	30.320 
09:50	52.2	52.2	52.2	85	47.8	0	2	270	0.00	30.320 
09:55	52.5	52.5	52.5	85	48.1	0	2	270	0.00	30.320 
10:00	52.8	52.8	52.8	85	48.4	0	1	270	0.00	30.320 
10:05	52.8	52.8	52.8	84	48.1	1	3	270	0.00	30.320 
10:10	53.1	53.1	53.1	84	48.4	0	1	270	0.00	30.320 
10:15	53.3	53.3	53.3	83	48.3	0	1	270	0.00	30.324 
10:20	53.8	53.8	53.8	82	48.4	0	1	270	0.00	30.324 
10:25	54.1	54.1	54.1	82	48.7	0	1	270	0.00	30.324 
10:30	54.4	54.4	54.4	81	48.7	0	1	270	0.00	30.323 
10:35	54.7	54.7	54.7	79	48.3	0	2	270	0.00	30.323 
10:40	55.0	55.0	55.0	78	48.3	0	1	270	0.00	30.323 
10:45	55.3	55.3	55.3	78	48.6	0	2	270	0.00	30.318 
10:50	55.7	55.7	55.7	77	48.6	0	1	270	0.00	30.318 
10:55	56.2	56.2	56.2	77	49.1	0	2	292	0.00	30.318 
11:00	56.9	56.9	56.9	77	49.8	0	2	292	0.00	30.315 
11:05	57.2	57.2	57.2	73	48.6	0	2	270	0.00	30.315 
11:10	57.8	57.8	57.8	74	49.6	0	3	270	0.00	30.315 
11:15	58.3	58.3	58.3	70	48.6	0	2	270	0.00	30.315 
11:20	58.9	58.9	58.9	71	49.5	0	2	270	0.00	30.315 
11:25	59.2	59.2	59.2	68	48.6	0	4	45	0.00	30.315 
11:30	59.5	59.5	59.5	69	49.3	0	1	45	0.00	30.315 
11:35	59.5	59.5	59.5	69	49.3	0	1	45	0.00	30.315 
11:40	59.6	59.6	59.6	65	47.8	0	1	45	0.00	30.315 
11:45	60.2	60.2	60.2	62	47.1	0	2	45	0.00	30.314 
11:50	60.7	60.7	60.7	56	44.9	0	2	45	0.00	30.314 
11:55	60.4	60.4	60.4	56	44.6	0	2	45	0.00	30.314 
12:00	60.4	60.4	60.4	54	43.7	0	2	45	0.00	30.304 
12:05	61.0	61.0	61.0	55	44.7	0	2	45	0.00	30.304 
12:10	61.2	61.2	61.2	51	42.9	1	3	0	0.00	30.304 
12:15	61.6	61.6	61.6	50	42.8	1	3	0	0.00	30.301 
12:20	62.1	62.1	62.1	50	43.2	0	3	45	0.00	30.301 
12:25	62.6	62.6	62.6	52	44.7	0	1	45	0.00	30.301 
12:30	62.7	62.7	62.7	51	44.3	0	1	45	0.00	30.294 
12:35	62.6	62.6	62.6	49	43.2	0	2	338	0.00	30.294 
12:40	62.1	62.1	62.1	51	43.8	0	2	338	0.00	30.294 
12:45	61.6	61.6	61.6	53	44.3	0	1	338	0.00	30.297 
12:50	61.3	61.3	61.3	54	44.5	0	1	338	0.00	30.297 
12:55	60.9	60.9	60.9	53	43.7	0	1	338	0.00	30.297 
13:00	60.5	60.5	60.5	52	42.8	0	1	338	0.00	30.287 
13:05	60.5	60.5	60.5	53	43.3	0	2	338	0.00	30.287 
13:10	60.5	60.5	60.5	53	43.3	0	1	338	0.00	30.287 
13:15	61.0	61.0	61.0	57	45.7	0	1	338	0.00	30.286 
13:20	61.8	61.8	61.8	54	45.0	0	3	22	0.00	30.286 
13:25	62.4	62.4	62.4	52	44.5	1	3	22	0.00	30.286 
13:30	62.4	62.4	62.4	53	45.0	0	2	45	0.00	30.279 
13:35	62.3	62.3	62.3	50	43.4	1	3	45	0.00	30.279 
13:40	62.1	62.1	62.1	52	44.3	0	1	45	0.00	30.279 
13:45	62.6	62.6	62.6	51	44.2	0	2	45	0.00	30.270 
13:50	63.1	63.1	63.1	50	44.2	0	2	45	0.00	30.270 
13:55	63.4	63.4	63.4	53	46.0	0	3	45	0.00	30.270 
14:00	63.5	63.5	63.5	52	45.6	0	2	45	0.00	30.265 
14:05	64.0	64.0	64.0	45	42.2	0	3	22	0.00	30.265 
14:10	64.7	64.7	64.7	50	45.6	0	4	90	0.00	30.265 
14:15	65.0	65.0	65.0	48	44.8	0	1	90	0.00	30.254 
14:20	65.2	65.2	65.2	50	46.1	0	1	90	0.00	30.254 
14:25	64.8	64.8	64.8	47	44.1	0	2	90	0.00	30.254 
14:30	64.3	64.3	64.3	52	46.3	0	2	90	0.00	30.249 
14:35	63.4	63.4	63.4	48	43.4	1	3	90	0.00	30.249 
14:40	62.9	62.9	62.9	51	44.5	0	1	90	0.00	30.249 
14:45	63.1	63.1	63.1	49	43.6	1	3	90	0.00	30.241 
14:50	63.4	63.4	63.4	50	44.4	1	2	90	0.00	30.241 
14:55	64.2	64.2	64.2	47	43.5	0	2	90	0.00	30.241 
15:00	64.2	64.2	64.2	49	44.6	1	5	90	0.00	30.237 
15:05	63.9	63.9	63.9	49	44.4	0	5	90	0.00	30.237 
15:10	63.5	63.5	63.5	49	44.0	0	2	90	0.00	30.237 
15:15	63.4	63.4	63.4	51	45.0	0	4	90	0.00	30.236 
15:20	63.5	63.5	63.5	53	46.1	0	2	90	0.00	30.236 
15:25	64.2	64.2	64.2	49	44.6	0	2	90	0.00	30.236 
15:30	64.5	64.5	64.5	49	44.9	1	4	90	0.00	30.227 
15:35	65.3	65.3	65.3	50	46.2	0	1	90	0.00	30.227 
15:40	66.1	66.1	66.1	48	45.8	0	1	90	0.00	30.227 
15:45	66.4	66.4	66.4	47	45.5	0	1	90	0.00	30.219 
15:50	66.8	66.8	66.8	46	45.3	0	1	90	0.00	30.219 
15:55	66.8	66.8	66.8	44	44.2	0	1	90	0.00	30.219 
16:00	66.4	66.4	66.4	45	44.4	0	1	90	0.00	30.216 
16:05	65.8	65.8	65.8	47	45.0	0	2	90	0.00	30.216 
16:10	65.3	65.3	65.3	48	45.1	0	2	90	0.00	30.216 
16:15	65.0	65.0	65.0	46	43.7	0	1	90	0.00	30.212 
16:20	65.0	65.0	65.0	46	43.7	0	3	90	0.00	30.212 
16:25	65.0	65.0	65.0	49	45.4	0	3	90	0.00	30.212 
16:30	65.2	65.2	65.2	46	43.9	1	4	90	0.00	30.206 
16:35	65.0	65.0	65.0	46	43.7	1	5	292	0.00	30.206 
16:40	64.8	64.8	64.8	49	45.2	1	3	292	0.00	30.206 
16:45	65.0	65.0	65.0	48	44.8	0	3	292	0.00	30.203 
16:50	64.8	64.8	64.8	47	44.1	0	2	292	0.00	30.203 
16:55	64.7	64.7	64.7	49	45.1	0	1	292	0.00	30.203 
17:00	64.7	64.7	64.7	48	44.6	0	1	292	0.00	30.199 
17:05	64.7	64.7	64.7	49	45.1	0	1	292	0.00	30.199 
17:10	64.5	64.5	64.5	49	44.9	0	1	292	0.00	30.199 
17:15	64.5	64.5	64.5	48	44.4	0	2	292	0.00	30.191 
17:20	64.5	64.5	64.5	49	44.9	1	5	90	0.00	30.191 
17:25	64.5	64.5	64.5	52	46.5	0	1	90	0.00	30.191 
17:30	64.5	64.5	64.5	49	44.9	0	2	90	0.00	30.187 
17:35	64.5	64.5	64.5	49	44.9	0	1	90	0.00	30.187 
17:40	64.5	64.5	64.5	50	45.4	0	1	90	0.00	30.187 
17:45	64.3	64.3	64.3	50	45.3	0	1	90	0.00	30.187 
17:50	64.3	64.3	64.3	51	45.8	0	2	90	0.00	30.187 
17:55	64.2	64.2	64.2	50	45.2	0	1	90	0.00	30.187 
18:00	64.0	64.0	64.0	50	45.0	0	0	---	0.00	30.190 
18:05	63.9	63.9	63.9	51	45.4	0	1	90	0.00	30.190 
18:10	63.7	63.7	63.7	51	45.2	0	1	90	0.00	30.190 
18:15	63.7	63.7	63.7	51	45.2	0	1	90	0.00	30.187 
18:20	63.5	63.5	63.5	51	45.0	0	1	90	0.00	30.187 
18:25	63.4	63.4	63.4	52	45.5	0	1	90	0.00	30.187 
18:30	63.1	63.1	63.1	53	45.7	0	0	---	0.00	30.189 
18:35	62.7	62.7	62.7	53	45.3	0	0	---	0.00	30.189 
18:40	62.6	62.6	62.6	54	45.7	0	0	---	0.00	30.189 
18:45	62.4	62.4	62.4	54	45.5	0	0	---	0.00	30.191 
18:50	62.4	62.4	62.4	54	45.5	0	0	---	0.00	30.191 
18:55	62.4	62.4	62.4	54	45.5	0	1	90	0.00	30.191 
19:00	62.6	62.6	62.6	54	45.7	0	0	---	0.00	30.192 
19:05	62.6	62.6	62.6	54	45.7	0	0	---	0.00	30.192 
19:10	62.4	62.4	62.4	54	45.5	0	1	90	0.00	30.192 
19:15	62.3	62.3	62.3	54	45.4	0	0	---	0.00	30.193 
19:20	62.1	62.1	62.1	56	46.2	0	0	---	0.00	30.193 
19:25	61.8	61.8	61.8	56	45.9	0	0	---	0.00	30.193 
19:30	61.6	61.6	61.6	56	45.7	0	0	---	0.00	30.193 
19:35	61.3	61.3	61.3	58	46.4	0	0	---	0.00	30.193 
19:40	60.9	60.9	60.9	58	46.0	0	0	---	0.00	30.193 
19:45	60.5	60.5	60.5	60	46.5	0	0	---	0.00	30.190 
19:50	59.9	59.9	59.9	61	46.4	0	0	---	0.00	30.190 
19:55	59.5	59.5	59.5	62	46.5	0	0	---	0.00	30.190 
20:00	58.9	58.9	58.9	62	45.9	0	0	---	0.00	30.191 
20:05	58.4	58.4	58.4	63	45.9	0	0	---	0.00	30.191 
20:10	58.0	58.0	58.0	65	46.3	0	0	---	0.00	30.191 
20:15	57.5	57.5	57.5	66	46.2	0	0	---	0.00	30.194 
20:20	57.0	57.0	57.0	68	46.5	0	0	---	0.00	30.194 
20:25	56.7	56.7	56.7	70	47.0	0	0	---	0.00	30.194 
20:30	56.3	56.3	56.3	71	47.0	0	0	---	0.00	30.200 
20:35	55.9	55.9	55.9	72	47.0	0	0	---	0.00	30.200 
20:40	55.4	55.4	55.4	74	47.3	0	0	---	0.00	30.200 
20:45	55.1	55.1	55.1	75	47.3	0	0	---	0.00	30.201 
20:50	54.8	54.8	54.8	75	47.0	0	0	---	0.00	30.201 
20:55	54.7	54.7	54.7	76	47.3	0	0	---	0.00	30.201 
21:00	54.4	54.4	54.4	77	47.3	0	0	---	0.00	30.205 
21:05	54.1	54.1	54.1	78	47.4	0	0	---	0.00	30.205 
21:10	53.8	53.8	53.8	79	47.4	0	0	---	0.00	30.205 
21:15	53.5	53.5	53.5	80	47.5	0	0	---	0.00	30.200 
21:20	53.3	53.3	53.3	81	47.6	0	0	---	0.00	30.200 
21:25	53.2	53.2	53.2	81	47.5	0	0	---	0.00	30.200 
21:30	53.1	53.1	53.1	82	47.8	0	0	---	0.00	30.197 
21:35	52.9	52.9	52.9	83	47.9	0	0	---	0.00	30.197 
21:40	52.8	52.8	52.8	83	47.8	0	0	---	0.00	30.197 
21:45	52.6	52.6	52.6	84	47.9	0	0	---	0.00	30.195 
21:50	52.5	52.5	52.5	84	47.8	0	0	---	0.00	30.195 
21:55	52.3	52.3	52.3	84	47.6	0	0	---	0.00	30.195 
22:00	52.0	52.0	52.0	84	47.3	0	0	---	0.00	30.196 
22:05	51.7	51.7	51.7	85	47.3	0	0	---	0.00	30.196 
22:10	51.6	51.6	51.6	86	47.5	0	0	---	0.00	30.196 
22:15	51.4	51.4	51.4	86	47.4	0	0	---	0.00	30.194 
22:20	51.3	51.3	51.3	86	47.3	0	0	---	0.00	30.194 
22:25	51.1	51.1	51.1	87	47.4	0	0	---	0.00	30.194 
22:30	51.0	51.0	51.0	87	47.3	0	0	---	0.00	30.189 
22:35	51.0	51.0	51.0	87	47.3	0	0	---	0.00	30.189 
22:40	50.8	50.8	50.8	87	47.1	0	0	---	0.00	30.189 
22:45	50.7	50.7	50.7	87	47.0	0	0	---	0.00	30.189 
22:50	50.5	50.5	50.5	88	47.1	0	0	---	0.00	30.189 
22:55	50.4	50.4	50.4	88	47.0	0	0	---	0.00	30.189 
23:00	50.2	50.2	50.2	88	46.8	0	0	---	0.00	30.193 
23:05	50.1	50.1	50.1	88	46.7	0	0	---	0.00	30.193 
23:10	49.9	49.9	49.9	88	46.5	0	0	---	0.00	30.193 
23:15	49.8	49.8	49.8	89	46.7	0	0	---	0.00	30.186 
23:20	49.6	49.6	49.6	89	46.5	0	0	---	0.00	30.186 
23:25	49.6	49.6	49.6	89	46.5	0	0	---	0.00	30.186 
23:30	49.5	49.5	49.5	89	46.4	0	0	---	0.00	30.189 
23:35	49.4	49.4	49.4	89	46.3	0	0	---	0.00	30.189 
23:40	49.4	49.4	49.4	90	46.6	0	0	---	0.00	30.189 
23:45	49.2	49.2	49.2	90	46.4	0	0	---	0.00	30.196 
23:50	49.2	49.2	49.2	90	46.4	0	0	---	0.00	30.196 
23:55	49.1	49.1	49.1	90	46.3	0	0	---	0.00	30.196 

CoCoRaHS
IN-AL-39
A2 Web Hosting
Creative Commons License
GoDaddy
search engine by freefind advanced

loaded 2018-11-16 01:27:33 • last modified 2010-11-18 10:43:29
Privacy PolicyDisclaimer
• wx.awcolley.com is powered by PmWiki v.2002016 •
• all content (unless otherwise noted) © 2018 A W Colley